Time;durP1;ratioP1;P1;durP2;ratioP2;P2;SDS_P1;SDS_P2;PMS_P1;PMS_P2;Temp;Humidity;BMP_temperature;BMP_pressure;BME280_temperature;BME280_humidity;BME280_pressure;Samples;Min_cycle;Max_cycle;Signal;HPM_P1;HPM_P2
2022/05/12 00:00:57;;;;;;;2.88;1.85;;;15.80;99.90;;;;;;5050321;28;20271;-80
2022/05/12 00:03:25;;;;;;;6.32;2.38;;;15.70;99.90;;;;;;5054012;28;20208;-82
2022/05/12 00:05:53;;;;;;;4.60;2.30;;;15.80;99.90;;;;;;5045846;28;20232;-81
2022/05/12 00:08:19;;;;;;;3.28;1.90;;;15.80;99.90;;;;;;5056302;28;20216;-82
2022/05/12 00:10:46;;;;;;;4.20;1.80;;;15.80;99.90;;;;;;5047488;28;20268;-81
2022/05/12 00:13:13;;;;;;;7.28;2.20;;;15.80;99.90;;;;;;5042978;28;20245;-81
2022/05/12 00:15:40;;;;;;;4.50;1.77;;;15.90;99.90;;;;;;5034342;28;20228;-81
2022/05/12 00:18:08;;;;;;;4.57;1.85;;;15.80;99.90;;;;;;5042306;28;20306;-80
2022/05/12 00:20:38;;;;;;;2.13;1.92;;;15.90;99.90;;;;;;5041593;28;20284;-81
2022/05/12 00:23:11;;;;;;;5.00;2.72;;;15.90;99.90;;;;;;5042737;28;20211;-81
2022/05/12 00:25:38;;;;;;;2.22;2.03;;;15.90;99.90;;;;;;5050793;28;20295;-79
2022/05/12 00:28:05;;;;;;;5.20;2.22;;;15.90;99.90;;;;;;5041574;28;20824;-81
2022/05/12 00:30:33;;;;;;;3.47;2.20;;;15.90;99.90;;;;;;5042402;28;20205;-80
2022/05/12 00:33:00;;;;;;;2.90;1.75;;;15.90;99.90;;;;;;5041265;28;20205;-81
2022/05/12 00:35:27;;;;;;;2.20;2.00;;;15.80;99.90;;;;;;5039052;28;20326;-81
2022/05/12 00:37:55;;;;;;;3.00;1.75;;;15.80;99.90;;;;;;5040797;28;20591;-80
2022/05/12 00:40:23;;;;;;;4.65;1.50;;;15.90;99.90;;;;;;5040447;28;20294;-81
2022/05/12 00:42:58;;;;;;;2.28;1.60;;;15.80;99.90;;;;;;5057403;28;20212;-80
2022/05/12 00:45:28;;;;;;;2.72;1.63;;;15.80;99.90;;;;;;5056422;28;20196;-80
2022/05/12 00:47:55;;;;;;;2.40;1.73;;;15.70;99.90;;;;;;5056312;28;20216;-81
2022/05/12 00:50:26;;;;;;;3.25;2.00;;;15.60;99.90;;;;;;5053266;28;20191;-79
2022/05/12 00:52:55;;;;;;;2.40;1.38;;;15.60;99.90;;;;;;5048581;28;20252;-80
2022/05/12 00:55:25;;;;;;;2.25;1.83;;;15.50;99.90;;;;;;5033533;28;20259;-81
2022/05/12 00:57:56;;;;;;;7.13;2.17;;;15.60;99.90;;;;;;5041330;28;20229;-81
2022/05/12 01:00:24;;;;;;;8.07;2.40;;;15.40;99.90;;;;;;5045283;28;20211;-82
2022/05/12 01:02:54;;;;;;;5.20;2.53;;;15.40;99.90;;;;;;5040551;28;20277;-81
2022/05/12 01:05:22;;;;;;;10.27;3.10;;;15.40;99.90;;;;;;5044237;28;20192;-81
2022/05/12 01:07:51;;;;;;;7.28;2.75;;;15.30;99.90;;;;;;5054293;28;20332;-80
2022/05/12 01:10:20;;;;;;;13.60;2.55;;;15.20;99.90;;;;;;5043590;28;20201;-82
2022/05/12 01:12:49;;;;;;;5.60;2.40;;;15.10;99.90;;;;;;5052877;28;20569;-81
2022/05/12 01:15:18;;;;;;;5.85;2.70;;;15.10;99.90;;;;;;5044379;28;20225;-81
2022/05/12 01:17:45;;;;;;;6.57;2.80;;;15.00;99.90;;;;;;5042598;28;20231;-80
2022/05/12 01:20:13;;;;;;;6.88;2.85;;;15.00;99.90;;;;;;5049261;28;20701;-82
2022/05/12 01:22:48;;;;;;;7.43;2.83;;;15.00;99.90;;;;;;5043634;28;20671;-81
2022/05/12 01:25:20;;;;;;;7.47;2.55;;;14.90;99.90;;;;;;5043278;28;20231;-81
2022/05/12 01:27:48;;;;;;;4.20;2.35;;;14.90;99.90;;;;;;5043724;28;20311;-81
2022/05/12 01:30:16;;;;;;;3.25;2.85;;;15.00;99.90;;;;;;5044053;28;20581;-81
2022/05/12 01:32:46;;;;;;;3.15;2.28;;;14.90;99.90;;;;;;5050160;28;20193;-80
2022/05/12 01:35:15;;;;;;;8.55;2.28;;;14.80;99.90;;;;;;5057227;28;20224;-81
2022/05/12 01:37:44;;;;;;;9.57;2.75;;;14.80;99.90;;;;;;5052867;28;20248;-81
2022/05/12 01:40:14;;;;;;;9.82;2.50;;;14.80;99.90;;;;;;5049423;28;20207;-81
2022/05/12 01:42:43;;;;;;;5.00;2.53;;;14.70;99.90;;;;;;5049571;28;20228;-80
2022/05/12 01:45:11;;;;;;;5.40;2.13;;;14.60;99.90;;;;;;5050423;28;20224;-81
2022/05/12 01:47:39;;;;;;;10.75;2.80;;;14.50;99.90;;;;;;5051611;28;20236;-81
2022/05/12 01:50:07;;;;;;;7.32;2.33;;;14.30;99.90;;;;;;5049136;28;20200;-81
2022/05/12 01:52:34;;;;;;;4.78;2.40;;;14.20;99.90;;;;;;5050823;28;20243;-80
2022/05/12 01:55:02;;;;;;;7.40;2.38;;;14.10;99.90;;;;;;5048304;28;20224;-80
2022/05/12 01:57:29;;;;;;;6.95;1.80;;;14.00;99.90;;;;;;5050447;28;20626;-79
2022/05/12 01:59:58;;;;;;;1.90;1.60;;;13.90;99.90;;;;;;5047640;28;20196;-79
2022/05/12 02:02:26;;;;;;;4.72;2.20;;;13.80;99.90;;;;;;5056636;28;20232;-80
2022/05/12 02:04:53;;;;;;;2.90;1.58;;;13.60;99.90;;;;;;5046303;28;20184;-80
2022/05/12 02:07:19;;;;;;;3.92;1.50;;;13.60;99.90;;;;;;5043856;28;20737;-80
2022/05/12 02:09:46;;;;;;;4.10;1.52;;;13.50;99.90;;;;;;5043292;28;20208;-80
2022/05/12 02:12:13;;;;;;;3.45;1.83;;;13.40;99.90;;;;;;5042911;28;20295;-80
2022/05/12 02:14:40;;;;;;;5.15;2.13;;;13.30;99.90;;;;;;5042524;28;20348;-80
2022/05/12 02:17:09;;;;;;;4.50;2.05;;;13.20;99.90;;;;;;5045326;28;20293;-81
2022/05/12 02:19:35;;;;;;;5.95;1.58;;;13.10;99.90;;;;;;5042820;28;20296;-81
2022/05/12 02:22:03;;;;;;;3.45;1.55;;;13.00;99.90;;;;;;5042440;28;20232;-81
2022/05/12 02:24:30;;;;;;;2.38;1.35;;;12.90;99.90;;;;;;5042620;28;20234;-81
2022/05/12 02:26:57;;;;;;;3.28;1.80;;;12.90;99.90;;;;;;5043424;28;20253;-81
2022/05/12 02:29:24;;;;;;;3.72;1.38;;;12.80;99.90;;;;;;5043211;28;20211;-81
2022/05/12 02:31:51;;;;;;;2.55;1.25;;;12.70;99.90;;;;;;5042194;28;20278;-81
2022/05/12 02:34:19;;;;;;;6.18;1.42;;;12.70;99.90;;;;;;5042677;28;20344;-80
2022/05/12 02:36:59;;;;;;;2.22;1.30;;;12.60;99.90;;;;;;5042653;28;20302;-80
2022/05/12 02:39:27;;;;;;;3.92;1.55;;;12.60;99.90;;;;;;5044787;28;20209;-80
2022/05/12 02:41:54;;;;;;;1.45;0.98;;;12.60;99.90;;;;;;5043470;28;20262;-80
2022/05/12 02:44:20;;;;;;;5.28;1.92;;;12.50;99.90;;;;;;5047060;28;20266;-79
2022/05/12 02:46:47;;;;;;;4.47;2.00;;;12.50;99.90;;;;;;5045824;28;20226;-80
2022/05/12 02:49:14;;;;;;;3.85;1.20;;;12.50;99.90;;;;;;5041586;28;20221;-81
2022/05/12 02:51:43;;;;;;;4.20;1.60;;;12.50;99.90;;;;;;5043521;28;20270;-80
2022/05/12 02:54:11;;;;;;;3.90;1.08;;;12.40;99.90;;;;;;5044719;28;20210;-80
2022/05/12 02:56:38;;;;;;;2.55;0.93;;;12.40;99.90;;;;;;5043113;28;20238;-84
2022/05/12 02:59:05;;;;;;;2.40;1.20;;;12.50;99.90;;;;;;5043213;28;20210;-80
2022/05/12 03:01:32;;;;;;;1.30;1.17;;;12.40;99.90;;;;;;5041457;28;20207;-81
2022/05/12 03:03:59;;;;;;;4.05;1.35;;;12.30;99.90;;;;;;5042120;28;20404;-82
2022/05/12 03:06:26;;;;;;;2.85;1.10;;;12.30;99.90;;;;;;5046383;28;20294;-80
2022/05/12 03:08:55;;;;;;;2.30;1.38;;;12.30;99.90;;;;;;5049492;28;20299;-80
2022/05/12 03:11:23;;;;;;;3.75;1.50;;;12.30;99.90;;;;;;5044522;28;20230;-81
2022/05/12 03:13:50;;;;;;;3.10;1.52;;;12.30;99.90;;;;;;5050709;28;20263;-81
2022/05/12 03:16:18;;;;;;;2.08;1.08;;;12.30;99.90;;;;;;5047539;28;20226;-81
2022/05/12 03:18:46;;;;;;;2.83;2.10;;;12.30;99.90;;;;;;5044670;28;20302;-80
2022/05/12 03:21:13;;;;;;;2.35;1.00;;;12.30;99.90;;;;;;5046499;28;20203;-81
2022/05/12 03:23:40;;;;;;;4.72;1.48;;;12.20;99.90;;;;;;5053508;28;20300;-81
2022/05/12 03:26:09;;;;;;;5.40;1.70;;;12.20;99.90;;;;;;5051543;28;20221;-81
2022/05/12 03:28:36;;;;;;;2.65;1.23;;;12.20;99.90;;;;;;5040343;28;20207;-80
2022/05/12 03:31:03;;;;;;;1.65;1.27;;;12.20;99.90;;;;;;5035997;28;20195;-80
2022/05/12 03:33:31;;;;;;;3.42;1.45;;;12.20;99.90;;;;;;5056025;28;20249;-79
2022/05/12 03:35:58;;;;;;;5.50;1.88;;;12.20;99.90;;;;;;5073232;28;20238;-79
2022/05/12 03:38:25;;;;;;;7.90;2.25;;;12.20;99.90;;;;;;5060158;28;20240;-80
2022/05/12 03:40:53;;;;;;;5.40;2.00;;;12.20;99.90;;;;;;5059628;28;20218;-80
2022/05/12 03:46:07;;;;;;;6.40;1.90;;;12.10;99.90;;;;;;5058200;28;20293;-80
2022/05/12 03:48:38;;;;;;;2.50;1.48;;;12.30;99.90;;;;;;5058023;28;20202;-80
2022/05/12 03:51:05;;;;;;;8.77;2.42;;;12.10;99.90;;;;;;5058050;28;20175;-81
2022/05/12 03:53:33;;;;;;;3.75;1.77;;;12.20;99.90;;;;;;5058141;28;20193;-79
2022/05/12 03:56:01;;;;;;;7.22;2.38;;;12.20;99.90;;;;;;5058205;28;20258;-81
2022/05/12 03:58:29;;;;;;;6.43;2.13;;;12.20;99.90;;;;;;5057238;28;20219;-81
2022/05/12 04:00:56;;;;;;;4.85;3.03;;;12.20;99.90;;;;;;5056723;28;20241;-80
2022/05/12 04:03:22;;;;;;;7.03;2.50;;;12.20;99.90;;;;;;5056834;28;20242;-80
2022/05/12 04:05:49;;;;;;;4.32;2.55;;;12.20;99.90;;;;;;5062367;28;20219;-81
2022/05/12 04:08:16;;;;;;;5.68;3.00;;;12.20;99.90;;;;;;5054654;28;20234;-81
2022/05/12 04:10:43;;;;;;;6.30;2.60;;;12.30;99.90;;;;;;5051890;28;20211;-81
2022/05/12 04:13:10;;;;;;;4.88;2.30;;;12.30;99.90;;;;;;5070433;28;20300;-82
2022/05/12 04:15:38;;;;;;;4.95;2.50;;;12.30;99.90;;;;;;5045382;28;20276;-80
2022/05/12 04:18:06;;;;;;;7.75;2.55;;;12.40;99.90;;;;;;5048530;28;20218;-80
2022/05/12 04:20:36;;;;;;;4.30;2.38;;;12.40;99.90;;;;;;5042772;28;20269;-80
2022/05/12 04:23:03;;;;;;;6.53;3.70;;;12.40;99.90;;;;;;5043248;28;20293;-81
2022/05/12 04:25:30;;;;;;;4.55;1.85;;;12.50;99.90;;;;;;5047891;28;20210;-81
2022/05/12 04:27:57;;;;;;;3.28;2.50;;;12.60;99.90;;;;;;5051521;28;20287;-80
2022/05/12 04:30:26;;;;;;;6.70;3.15;;;12.60;99.90;;;;;;5050018;28;20211;-81
2022/05/12 04:32:55;;;;;;;9.07;3.10;;;12.60;99.90;;;;;;5047737;28;20235;-80
2022/05/12 04:35:23;;;;;;;3.90;2.33;;;12.60;99.90;;;;;;5032780;28;20264;-82
2022/05/12 04:37:52;;;;;;;8.35;3.00;;;12.70;99.90;;;;;;5043286;28;20222;-80
2022/05/12 04:40:21;;;;;;;3.92;2.88;;;12.80;99.90;;;;;;5044234;28;20212;-80
2022/05/12 04:42:49;;;;;;;4.22;2.00;;;12.90;99.90;;;;;;5044056;28;20231;-81
2022/05/12 04:45:17;;;;;;;4.03;2.22;;;13.10;99.90;;;;;;5047093;28;20293;-82
2022/05/12 04:47:44;;;;;;;3.60;1.98;;;13.10;99.90;;;;;;5049696;28;20251;-81
2022/05/12 04:50:15;;;;;;;7.05;2.10;;;13.20;99.90;;;;;;5043769;28;20199;-81
2022/05/12 04:52:42;;;;;;;7.25;2.88;;;13.30;99.90;;;;;;5044776;28;20208;-81
2022/05/12 04:55:10;;;;;;;5.60;2.42;;;13.40;99.90;;;;;;5044856;28;20234;-82
2022/05/12 04:57:38;;;;;;;2.75;2.10;;;13.40;99.90;;;;;;5048626;28;20246;-81
2022/05/12 05:00:07;;;;;;;5.28;2.30;;;13.40;99.90;;;;;;5045400;28;20204;-81
2022/05/12 05:02:34;;;;;;;7.25;2.33;;;13.40;99.90;;;;;;5046070;28;20305;-82
2022/05/12 05:05:01;;;;;;;4.32;2.10;;;13.50;99.90;;;;;;5057773;28;20221;-80
2022/05/12 05:07:29;;;;;;;4.10;1.65;;;13.70;99.90;;;;;;5057274;28;20227;-81
2022/05/12 05:10:12;;;;;;;4.07;1.73;;;14.30;99.90;;;;;;5058928;28;20185;-80
2022/05/12 05:12:39;;;;;;;2.55;1.48;;;15.20;99.90;;;;;;5059601;28;20195;-81
2022/05/12 05:15:07;;;;;;;3.10;1.80;;;16.10;99.90;;;;;;5057725;28;20208;-82
2022/05/12 05:17:35;;;;;;;4.27;2.23;;;16.80;99.90;;;;;;5058897;28;20230;-80
2022/05/12 05:20:03;;;;;;;5.50;2.20;;;17.70;99.90;;;;;;5053656;28;20502;-81
2022/05/12 05:22:33;;;;;;;7.60;2.03;;;18.40;99.90;;;;;;5045370;28;20486;-80
2022/05/12 05:25:00;;;;;;;5.97;2.17;;;18.50;99.90;;;;;;5046879;28;20471;-82
2022/05/12 05:27:27;;;;;;;3.37;1.50;;;18.90;99.90;;;;;;5043917;28;20489;-81
2022/05/12 05:29:54;;;;;;;3.67;1.67;;;19.40;99.70;;;;;;5044707;28;20447;-81
2022/05/12 05:32:21;;;;;;;4.00;1.70;;;20.10;97.80;;;;;;5044412;28;20503;-82
2022/05/12 05:34:48;;;;;;;2.50;1.60;;;20.60;94.80;;;;;;5045826;28;20457;-79
2022/05/12 05:37:14;;;;;;;7.40;1.93;;;20.00;95.30;;;;;;5046755;28;20490;-82
2022/05/12 05:39:43;;;;;;;5.67;2.10;;;20.20;95.20;;;;;;5044216;28;20551;-82
2022/05/12 05:42:14;;;;;;;4.13;1.87;;;20.10;94.70;;;;;;5045149;28;20472;-82
2022/05/12 05:44:41;;;;;;;5.40;1.80;;;20.50;94.90;;;;;;5050840;28;20536;-81
2022/05/12 05:47:08;;;;;;;8.53;1.97;;;20.80;93.80;;;;;;5046250;28;20541;-84
2022/05/12 05:49:37;;;;;;;3.53;1.77;;;21.30;93.00;;;;;;5045554;28;20458;-80
2022/05/12 05:54:50;;;;;;;5.47;2.23;;;21.40;91.90;;;;;;5045802;28;20498;-82
2022/05/12 05:57:23;;;;;;;5.27;2.23;;;22.10;91.00;;;;;;5045701;28;20499;-82
2022/05/12 05:59:50;;;;;;;5.80;2.47;;;22.20;90.00;;;;;;5040767;28;20450;-83
2022/05/12 06:02:17;;;;;;;3.50;2.23;;;22.20;89.80;;;;;;5055136;28;20494;-81
2022/05/12 06:04:44;;;;;;;5.87;2.07;;;22.60;89.50;;;;;;5058725;28;20427;-81
2022/05/12 06:07:11;;;;;;;9.57;2.37;;;23.30;88.80;;;;;;5058514;28;20522;-80
2022/05/12 06:09:38;;;;;;;5.13;2.27;;;23.40;85.90;;;;;;5053031;28;20440;-80
2022/05/12 06:12:07;;;;;;;4.17;2.40;;;23.60;85.20;;;;;;5057116;28;20437;-80
2022/05/12 06:14:34;;;;;;;5.50;2.00;;;24.00;84.10;;;;;;5058735;28;20435;-81
2022/05/12 06:17:01;;;;;;;8.77;2.60;;;24.30;82.60;;;;;;5058790;28;20549;-80
2022/05/12 06:19:28;;;;;;;4.60;1.87;;;24.20;82.40;;;;;;5058752;28;20450;-81
2022/05/12 06:21:55;;;;;;;6.30;2.73;;;24.40;81.30;;;;;;5058873;28;20445;-80
2022/05/12 06:24:22;;;;;;;4.57;2.07;;;24.40;81.20;;;;;;5058475;28;20435;-81
2022/05/12 06:26:49;;;;;;;9.03;3.70;;;24.40;79.90;;;;;;5058058;28;20485;-79
2022/05/12 06:29:18;;;;;;;3.63;2.13;;;24.00;81.00;;;;;;5058320;28;20447;-80
2022/05/12 06:31:44;;;;;;;7.80;2.80;;;23.80;81.60;;;;;;5058876;28;20430;-80
2022/05/12 06:34:12;;;;;;;5.93;2.00;;;23.80;81.10;;;;;;5059161;28;20450;-83
2022/05/12 06:36:39;;;;;;;4.97;2.00;;;23.60;81.90;;;;;;5057687;28;20496;-84
2022/05/12 06:39:07;;;;;;;4.60;1.90;;;24.40;81.40;;;;;;5052666;28;20439;-81
2022/05/12 06:41:33;;;;;;;7.83;2.33;;;24.40;80.00;;;;;;5047175;28;20447;-84
2022/05/12 06:44:01;;;;;;;4.37;1.93;;;24.40;79.10;;;;;;5053834;28;20482;-81
2022/05/12 06:46:29;;;;;;;4.53;1.67;;;24.70;79.50;;;;;;5057045;28;20455;-82
2022/05/12 06:48:56;;;;;;;11.67;1.90;;;24.40;78.30;;;;;;5050324;28;20522;-82
2022/05/12 06:51:23;;;;;;;7.93;2.50;;;24.10;79.70;;;;;;5049239;28;20453;-81
2022/05/12 06:53:49;;;;;;;7.47;2.67;;;24.70;79.40;;;;;;5052829;28;20464;-82
2022/05/12 06:56:16;;;;;;;6.43;1.77;;;24.80;77.60;;;;;;5047581;28;20936;-83
2022/05/12 06:58:43;;;;;;;3.83;2.10;;;25.10;77.20;;;;;;5058701;28;20507;-83
2022/05/12 07:01:12;;;;;;;4.97;2.00;;;25.50;76.40;;;;;;5044595;28;20473;-82
2022/05/12 07:03:40;;;;;;;5.47;1.90;;;25.50;76.00;;;;;;5045571;28;20530;-82
2022/05/12 07:06:08;;;;;;;8.67;2.10;;;25.60;75.70;;;;;;5044077;28;20463;-83
2022/05/12 07:08:40;;;;;;;3.70;1.40;;;26.00;74.80;;;;;;5052253;28;20423;-81
2022/05/12 07:11:07;;;;;;;3.20;1.87;;;26.70;73.70;;;;;;5052931;28;20442;-80
2022/05/12 07:13:34;;;;;;;6.07;1.60;;;26.00;72.50;;;;;;5051191;28;20451;-82
2022/05/12 07:16:03;;;;;;;2.80;1.93;;;25.90;73.90;;;;;;5047483;28;20530;-82
2022/05/12 07:18:30;;;;;;;4.00;2.00;;;25.50;73.50;;;;;;5047528;28;20446;-81
2022/05/12 07:26:36;;;;;;;5.10;1.90;;;24.60;76.70;;;;;;5042512;28;20473;-83
2022/05/12 07:29:04;;;;;;;3.17;1.83;;;25.20;75.80;;;;;;5048092;28;20434;-81
2022/05/12 07:31:31;;;;;;;5.40;1.97;;;25.00;75.60;;;;;;5054547;28;20801;-82
2022/05/12 07:33:59;;;;;;;6.87;1.93;;;23.80;77.40;;;;;;5048555;28;20522;-80
2022/05/12 07:36:30;;;;;;;9.40;3.37;;;23.90;77.90;;;;;;5043065;28;21092;-80
2022/05/12 07:38:57;;;;;;;6.60;1.77;;;24.10;77.40;;;;;;5041987;28;20477;-82
2022/05/12 07:41:25;;;;;;;4.43;2.00;;;24.40;76.70;;;;;;5046768;28;20450;-82
2022/05/12 07:43:54;;;;;;;3.67;1.80;;;24.20;76.90;;;;;;5054199;28;20518;-82
2022/05/12 07:46:28;;;;;;;4.00;1.63;;;23.80;75.90;;;;;;5052125;28;20482;-82
2022/05/12 07:48:55;;;;;;;7.63;2.50;;;23.60;77.50;;;;;;5043319;28;20508;-81
2022/05/12 07:51:23;;;;;;;3.30;1.47;;;24.00;78.00;;;;;;5038949;28;20478;-81
2022/05/12 07:53:52;;;;;;;9.20;1.93;;;24.40;77.60;;;;;;5044310;28;20454;-82
2022/05/12 07:56:22;;;;;;;6.20;1.73;;;25.80;74.60;;;;;;5041900;28;20525;-81
2022/05/12 07:58:50;;;;;;;6.33;1.90;;;26.00;72.70;;;;;;5045965;28;20439;-81
2022/05/12 08:01:17;;;;;;;3.10;1.60;;;26.80;71.50;;;;;;5047153;28;20502;-82
2022/05/12 08:03:45;;;;;;;2.93;1.73;;;26.80;70.70;;;;;;5047717;28;20508;-82
2022/05/12 08:06:14;;;;;;;6.37;1.80;;;27.20;70.10;;;;;;5046040;28;20487;-83
2022/05/12 08:08:42;;;;;;;4.80;2.40;;;27.00;69.30;;;;;;5047764;28;20526;-82
2022/05/12 08:11:11;;;;;;;4.60;1.80;;;27.20;69.60;;;;;;5048193;28;20458;-82
2022/05/12 08:13:38;;;;;;;3.93;2.10;;;27.30;68.90;;;;;;5055644;28;20447;-81
2022/05/12 08:16:06;;;;;;;4.60;1.90;;;27.10;68.80;;;;;;5049597;28;20462;-82
2022/05/12 08:18:35;;;;;;;5.03;2.00;;;27.40;68.10;;;;;;5050640;28;20486;-81
2022/05/12 08:21:03;;;;;;;5.93;3.00;;;26.50;67.90;;;;;;5046911;28;20995;-83
2022/05/12 08:23:29;;;;;;;4.87;2.60;;;26.10;69.10;;;;;;5055746;28;20514;-83
2022/05/12 08:25:57;;;;;;;4.70;1.77;;;26.10;70.60;;;;;;5047014;28;20517;-81
2022/05/12 08:28:26;;;;;;;4.00;1.80;;;26.90;69.00;;;;;;5046223;28;20455;-82
2022/05/12 08:30:53;;;;;;;3.60;1.90;;;27.90;67.60;;;;;;5042398;28;20448;-82
2022/05/12 08:33:20;;;;;;;6.43;2.37;;;28.00;64.70;;;;;;5049147;28;20464;-81
2022/05/12 08:35:48;;;;;;;7.00;2.30;;;28.50;64.10;;;;;;5054850;28;20464;-82
2022/05/12 08:38:16;;;;;;;4.03;1.60;;;28.60;62.90;;;;;;5048755;28;20601;-82
2022/05/12 08:40:52;;;;;;;5.00;2.50;;;29.10;61.70;;;;;;5049552;28;20455;-81
2022/05/12 08:43:24;;;;;;;4.40;1.33;;;28.70;61.20;;;;;;5058055;28;20446;-83
2022/05/12 08:45:54;;;;;;;3.60;2.00;;;28.40;61.80;;;;;;5052175;28;20469;-82
2022/05/12 08:48:22;;;;;;;3.70;1.50;;;28.70;61.60;;;;;;5050528;28;20457;-82
2022/05/12 08:50:53;;;;;;;5.53;2.03;;;28.70;59.80;;;;;;5051023;28;20554;-82
2022/05/12 08:53:25;;;;;;;5.23;1.43;;;27.80;60.80;;;;;;5042309;28;20455;-81
2022/05/12 08:55:56;;;;;;;4.93;1.37;;;27.50;59.90;;;;;;5050823;28;20477;-82
2022/05/12 08:58:30;;;;;;;6.47;1.90;;;27.40;60.90;;;;;;5050563;28;20481;-82
2022/05/12 09:01:02;;;;;;;5.60;2.23;;;26.50;61.80;;;;;;5058157;28;20452;-81
2022/05/12 09:03:48;;;;;;;3.33;1.70;;;26.80;63.40;;;;;;5061735;28;20494;-81
2022/05/12 09:06:20;;;;;;;4.27;1.60;;;27.20;62.10;;;;;;5057989;28;20462;-80
2022/05/12 09:08:53;;;;;;;3.43;1.77;;;25.90;60.40;;;;;;5059119;28;20447;-80
2022/05/12 09:11:25;;;;;;;4.43;1.57;;;26.00;62.40;;;;;;5064345;28;20515;-82
2022/05/12 09:13:54;;;;;;;3.10;1.60;;;27.10;61.30;;;;;;5052138;28;20477;-82
2022/05/12 09:16:25;;;;;;;2.80;1.20;;;27.30;60.30;;;;;;5053150;28;20530;-82
2022/05/12 09:18:54;;;;;;;3.20;1.80;;;27.40;59.20;;;;;;5059514;28;20422;-80
2022/05/12 09:21:24;;;;;;;5.87;2.50;;;27.00;59.40;;;;;;5058376;28;20451;-80
2022/05/12 09:23:51;;;;;;;4.20;1.27;;;26.70;59.20;;;;;;5057761;28;20438;-80
2022/05/12 09:26:39;;;;;;;3.77;1.50;;;26.60;60.00;;;;;;5058279;28;20466;-81
2022/05/12 09:29:15;;;;;;;3.53;1.77;;;27.20;59.30;;;;;;5059023;28;20440;-80
2022/05/12 09:31:46;;;;;;;6.60;1.40;;;26.30;60.00;;;;;;5058129;28;20458;-81
2022/05/12 09:34:31;;;;;;;2.70;1.27;;;24.90;63.60;;;;;;5058556;28;20502;-81
2022/05/12 09:37:16;;;;;;;4.30;1.53;;;23.70;63.10;;;;;;5064918;28;20500;-80
2022/05/12 09:39:45;;;;;;;3.17;1.60;;;24.00;65.20;;;;;;5063039;28;20585;-80
2022/05/12 09:42:26;;;;;;;5.03;1.67;;;25.20;63.70;;;;;;5060116;28;20461;-81
2022/05/12 09:44:56;;;;;;;5.17;1.53;;;25.80;61.50;;;;;;5062239;28;20510;-80
2022/05/12 09:47:26;;;;;;;2.60;1.17;;;26.30;60.80;;;;;;5057773;28;20463;-81
2022/05/12 09:50:16;;;;;;;2.90;1.33;;;26.00;59.70;;;;;;5057457;28;20419;-81
2022/05/12 09:52:43;;;;;;;3.00;1.20;;;25.60;60.80;;;;;;5052904;28;20461;-80
2022/05/12 09:55:16;;;;;;;6.10;4.13;;;25.90;59.40;;;;;;5058006;28;20434;-80
2022/05/12 09:57:50;;;;;;;4.77;1.10;;;25.70;59.70;;;;;;5057448;28;20471;-81
2022/05/12 10:00:33;;;;;;;3.87;0.83;;;25.90;57.90;;;;;;5052544;28;20478;-81
2022/05/12 10:09:04;;;;;;;2.80;1.20;;;24.50;59.20;;;;;;5055869;28;20489;-81
2022/05/12 10:11:34;;;;;;;3.13;1.07;;;23.70;60.70;;;;;;5046390;28;20454;-84
2022/05/12 10:14:05;;;;;;;2.63;1.83;;;24.00;61.60;;;;;;5049418;28;20481;-81
2022/05/12 10:16:33;;;;;;;3.20;1.07;;;25.00;60.40;;;;;;5047517;28;20479;-82
2022/05/12 10:19:07;;;;;;;4.50;1.53;;;25.80;58.10;;;;;;5041554;28;20483;-82
2022/05/12 10:21:38;;;;;;;3.40;0.90;;;26.20;56.50;;;;;;5057498;28;20446;-82
2022/05/12 10:24:14;;;;;;;2.07;0.93;;;26.20;55.90;;;;;;5046463;28;20439;-81
2022/05/12 10:26:46;;;;;;;3.20;1.20;;;25.60;55.60;;;;;;5044377;28;20465;-81
2022/05/12 10:29:26;;;;;;;1.90;0.90;;;25.80;56.90;;;;;;5045191;28;20449;-82
2022/05/12 10:32:02;;;;;;;3.03;0.80;;;26.30;57.30;;;;;;5040554;28;20523;-83
2022/05/12 10:34:41;;;;;;;1.60;1.07;;;25.80;55.90;;;;;;5052756;28;20450;-81
2022/05/12 10:37:23;;;;;;;1.27;0.80;;;25.10;57.60;;;;;;5044291;28;20519;-83
2022/05/12 10:39:58;;;;;;;2.60;1.40;;;24.10;58.70;;;;;;5045683;28;20530;-83
2022/05/12 10:42:38;;;;;;;2.20;1.10;;;23.90;60.40;;;;;;5053402;28;20481;-84
2022/05/12 10:45:17;;;;;;;1.93;0.90;;;24.10;59.60;;;;;;5047165;28;20874;-82
2022/05/12 10:48:13;;;;;;;3.00;1.23;;;23.80;58.30;;;;;;5050081;28;20518;-84
2022/05/12 10:50:49;;;;;;;2.40;1.00;;;23.60;58.10;;;;;;5028899;28;20483;-82
2022/05/12 10:53:29;;;;;;;2.60;0.90;;;23.20;59.30;;;;;;5052897;28;20521;-81
2022/05/12 10:56:03;;;;;;;2.10;0.90;;;22.80;60.50;;;;;;5045102;28;20477;-82
2022/05/12 10:58:37;;;;;;;4.53;1.40;;;22.80;60.20;;;;;;5045770;28;20485;-81
2022/05/12 11:01:17;;;;;;;4.50;1.20;;;22.70;60.20;;;;;;5050239;28;21185;-82
2022/05/12 11:03:51;;;;;;;3.37;1.00;;;22.50;60.60;;;;;;5052277;28;20453;-81
2022/05/12 11:06:22;;;;;;;2.17;1.07;;;22.20;60.80;;;;;;5053225;28;20953;-82
2022/05/12 11:08:55;;;;;;;2.50;1.07;;;22.60;60.70;;;;;;5052367;28;20457;-81
2022/05/12 11:11:25;;;;;;;7.13;1.83;;;22.90;60.10;;;;;;5046728;28;20447;-80
2022/05/12 11:13:58;;;;;;;6.67;1.47;;;23.00;60.30;;;;;;5051909;28;20462;-81
2022/05/12 11:16:30;;;;;;;5.07;1.33;;;22.90;60.10;;;;;;5047188;28;20554;-80
2022/05/12 11:19:05;;;;;;;4.87;1.10;;;23.00;61.20;;;;;;5055365;28;20500;-82
2022/05/12 11:21:40;;;;;;;6.00;1.87;;;23.50;60.20;;;;;;5050676;28;21114;-81
2022/05/12 11:24:24;;;;;;;5.80;1.17;;;23.10;59.60;;;;;;5062629;28;20435;-81
2022/05/12 11:27:07;;;;;;;1.20;0.80;;;23.00;60.40;;;;;;5054410;28;20463;-82
2022/05/12 11:29:45;;;;;;;4.10;1.17;;;23.00;60.40;;;;;;5045446;28;20496;-80
2022/05/12 11:32:27;;;;;;;2.63;1.00;;;22.80;60.70;;;;;;5054036;28;20435;-81
2022/05/12 11:35:00;;;;;;;2.10;1.07;;;22.60;61.50;;;;;;5055771;28;20436;-80
2022/05/12 11:37:35;;;;;;;4.13;1.53;;;22.60;61.10;;;;;;5047504;28;20486;-81
2022/05/12 11:40:06;;;;;;;2.57;1.23;;;22.60;60.40;;;;;;5053272;28;20485;-82
2022/05/12 11:45:36;;;;;;;5.30;1.00;;;22.60;59.60;;;;;;5043521;28;20469;-82
2022/05/12 11:48:16;;;;;;;1.50;0.87;;;22.60;60.30;;;;;;5042173;28;20462;-81
2022/05/12 11:51:03;;;;;;;2.67;1.10;;;21.90;60.60;;;;;;5045220;28;20508;-82
2022/05/12 11:53:50;;;;;;;4.57;1.43;;;21.90;61.80;;;;;;5040046;28;20460;-81
2022/05/12 11:56:42;;;;;;;4.63;1.07;;;22.20;61.60;;;;;;5052576;28;20533;-82
2022/05/12 11:59:48;;;;;;;3.10;1.00;;;22.70;61.00;;;;;;5051989;28;20482;-83
2022/05/12 12:02:54;;;;;;;3.37;1.23;;;23.00;60.30;;;;;;5043311;28;20474;-82
2022/05/12 12:06:00;;;;;;;1.50;0.93;;;23.00;60.30;;;;;;5036353;28;20455;-82
2022/05/12 12:08:44;;;;;;;3.43;1.07;;;23.00;60.90;;;;;;5037035;28;20506;-82
2022/05/12 12:11:26;;;;;;;2.23;1.10;;;23.00;60.90;;;;;;5052132;28;20504;-82
2022/05/12 12:13:55;;;;;;;4.90;1.20;;;23.00;60.00;;;;;;5048844;28;20969;-82
2022/05/12 12:16:23;;;;;;;6.17;1.20;;;23.10;60.60;;;;;;5039799;28;20466;-81
2022/05/12 12:19:01;;;;;;;3.20;1.33;;;23.10;61.10;;;;;;5047072;28;20486;-82
2022/05/12 12:21:47;;;;;;;3.63;2.23;;;23.10;62.20;;;;;;5048141;28;20469;-81
2022/05/12 12:24:39;;;;;;;4.50;1.30;;;22.80;60.10;;;;;;5046014;28;20819;-81
2022/05/12 12:27:20;;;;;;;4.80;1.90;;;22.30;60.60;;;;;;5049773;28;20469;-81
2022/05/12 12:29:49;;;;;;;4.27;1.80;;;21.90;61.10;;;;;;5050260;28;20785;-82
2022/05/12 12:32:29;;;;;;;3.47;1.90;;;21.70;62.20;;;;;;5048147;28;20460;-82
2022/05/12 12:35:04;;;;;;;7.33;2.83;;;21.80;63.00;;;;;;5046580;28;20446;-82
2022/05/12 12:37:44;;;;;;;6.13;2.53;;;21.90;63.50;;;;;;5056248;28;20495;-81
2022/05/12 12:40:41;;;;;;;16.43;3.40;;;22.10;63.30;;;;;;5056667;28;20478;-80
2022/05/12 12:43:17;;;;;;;5.73;4.43;;;22.20;63.00;;;;;;5053868;28;20501;-81
2022/05/12 12:45:48;;;;;;;5.80;3.30;;;21.90;62.80;;;;;;5052172;28;20446;-81
2022/05/12 12:48:20;;;;;;;11.07;4.23;;;21.90;63.30;;;;;;5054832;28;20518;-81
2022/05/12 12:50:50;;;;;;;5.00;4.17;;;22.10;63.70;;;;;;5055423;28;20447;-81
2022/05/12 12:56:31;;;;;;;8.37;7.00;;;21.80;63.10;;;;;;5012150;28;20439;-80
2022/05/12 12:59:00;;;;;;;9.27;7.93;;;21.80;63.40;;;;;;5050792;28;20506;-81
2022/05/12 13:01:37;;;;;;;11.63;8.33;;;21.70;63.50;;;;;;5051147;28;20535;-81
2022/05/12 13:04:09;;;;;;;11.63;9.20;;;21.80;63.10;;;;;;5040612;28;20462;-84
2022/05/12 13:06:38;;;;;;;18.60;10.03;;;21.80;63.30;;;;;;5051330;28;20501;-82
2022/05/12 13:09:09;;;;;;;15.40;10.60;;;21.80;63.60;;;;;;5051449;28;20498;-80
2022/05/12 13:11:39;;;;;;;20.03;12.87;;;21.80;63.50;;;;;;5055030;28;20450;-82
2022/05/12 13:14:08;;;;;;;13.77;11.33;;;21.80;63.70;;;;;;5049434;28;20439;-82
2022/05/12 13:16:38;;;;;;;15.43;12.00;;;21.70;63.80;;;;;;5058906;28;20470;-80
2022/05/12 13:19:07;;;;;;;16.07;11.90;;;21.90;63.90;;;;;;5059387;28;20477;-81
2022/05/12 13:21:37;;;;;;;20.73;12.00;;;21.90;63.30;;;;;;5059549;28;20453;-80
2022/05/12 13:24:07;;;;;;;18.17;11.00;;;22.00;63.10;;;;;;5060144;28;20629;-80
2022/05/12 13:26:36;;;;;;;12.97;10.60;;;21.90;62.50;;;;;;5059762;28;20511;-79